Time;durP1;ratioP1;P1;durP2;ratioP2;P2;SDS_P1;SDS_P2;PMS_P1;PMS_P2;Temp;Humidity;BMP_temperature;BMP_pressure;BME280_temperature;BME280_humidity;BME280_pressure;Samples;Min_cycle;Max_cycle;Signal;HPM_P1;HPM_P2
2022/03/07 00:02:32;;;;;;;10.80;9.00;;;4.60;38.40;;;;;;6243311;23;20383;-70
2022/03/07 00:05:20;;;;;;;11.60;8.07;;;4.40;38.30;;;;;;6241970;23;20353;-70
2022/03/07 00:08:06;;;;;;;12.30;8.47;;;4.40;38.30;;;;;;6241557;23;20378;-70
2022/03/07 00:10:51;;;;;;;13.00;8.50;;;4.40;38.20;;;;;;6241319;23;20375;-70
2022/03/07 00:13:37;;;;;;;13.90;9.60;;;4.30;37.60;;;;;;6242657;23;20435;-70
2022/03/07 00:16:22;;;;;;;10.83;8.80;;;4.30;38.00;;;;;;6242726;22;20858;-70
2022/03/07 00:19:08;;;;;;;11.87;9.47;;;4.30;38.20;;;;;;6239902;23;20766;-70
2022/03/07 00:21:55;;;;;;;11.50;9.07;;;4.20;38.00;;;;;;6242914;23;20423;-71
2022/03/07 00:24:41;;;;;;;11.67;8.67;;;4.20;38.10;;;;;;6242550;23;20441;-70
2022/03/07 00:27:27;;;;;;;12.90;9.50;;;4.20;38.80;;;;;;6242033;22;20404;-70
2022/03/07 00:30:15;;;;;;;13.33;9.60;;;4.10;39.50;;;;;;6240131;23;20836;-70
2022/03/07 00:33:01;;;;;;;13.77;10.07;;;4.10;39.10;;;;;;6242778;23;20379;-70
2022/03/07 00:35:47;;;;;;;13.90;10.17;;;4.00;40.00;;;;;;6242829;22;20529;-70
2022/03/07 00:38:34;;;;;;;13.57;9.63;;;4.00;40.50;;;;;;6240037;23;20377;-69
2022/03/07 00:41:19;;;;;;;12.18;9.85;;;3.90;41.30;;;;;;6241810;23;20421;-70
2022/03/07 00:44:05;;;;;;;13.90;9.45;;;3.90;42.30;;;;;;6242228;23;20175;-70
2022/03/07 00:46:51;;;;;;;12.20;9.77;;;3.90;43.60;;;;;;6242725;22;20592;-70
2022/03/07 00:49:37;;;;;;;11.20;8.63;;;3.80;44.50;;;;;;6240626;23;20381;-70
2022/03/07 00:52:22;;;;;;;16.47;9.60;;;3.70;46.00;;;;;;6241771;23;20372;-70
2022/03/07 00:55:10;;;;;;;11.40;8.13;;;3.80;47.10;;;;;;6241838;23;20383;-70
2022/03/07 00:57:56;;;;;;;15.70;8.80;;;3.70;47.50;;;;;;6241606;22;20400;-70
2022/03/07 01:00:42;;;;;;;10.97;8.10;;;3.70;48.30;;;;;;6242385;23;20422;-70
2022/03/07 01:03:27;;;;;;;10.80;8.40;;;3.70;48.40;;;;;;6241726;23;21297;-70
2022/03/07 01:06:14;;;;;;;10.73;9.30;;;3.90;48.50;;;;;;6243001;22;20392;-70
2022/03/07 01:08:59;;;;;;;10.77;8.10;;;4.00;48.50;;;;;;6240076;23;20434;-70
2022/03/07 01:11:46;;;;;;;9.57;7.50;;;3.90;48.90;;;;;;6242975;23;20895;-70
2022/03/07 01:14:32;;;;;;;10.55;7.50;;;3.90;48.40;;;;;;6241329;23;20378;-70
2022/03/07 01:17:17;;;;;;;12.30;8.27;;;3.80;48.80;;;;;;6242613;22;20203;-70
2022/03/07 01:20:03;;;;;;;8.50;6.60;;;3.60;49.80;;;;;;6241800;23;20464;-70
2022/03/07 01:22:49;;;;;;;10.20;7.53;;;3.60;50.00;;;;;;6243253;23;20356;-70
2022/03/07 01:25:35;;;;;;;9.83;7.00;;;3.50;50.50;;;;;;6242124;23;20383;-70
2022/03/07 01:28:23;;;;;;;8.90;7.47;;;3.40;51.60;;;;;;6239191;23;20831;-70
2022/03/07 01:31:09;;;;;;;10.70;7.37;;;3.30;52.30;;;;;;6242317;23;20704;-70
2022/03/07 01:33:54;;;;;;;10.68;8.15;;;3.20;52.90;;;;;;6242171;23;20378;-70
2022/03/07 01:36:40;;;;;;;10.20;6.77;;;3.20;53.20;;;;;;6243177;22;20207;-70
2022/03/07 01:39:26;;;;;;;10.30;6.90;;;3.30;53.90;;;;;;6241118;23;20385;-70
2022/03/07 01:42:12;;;;;;;8.97;6.50;;;3.30;53.90;;;;;;6243348;23;20518;-70
2022/03/07 01:45:09;;;;;;;10.80;6.90;;;3.30;53.70;;;;;;6242895;23;20382;-70
2022/03/07 01:47:54;;;;;;;8.40;6.43;;;3.20;53.70;;;;;;6241003;22;20541;-70
2022/03/07 01:50:40;;;;;;;8.82;7.07;;;3.20;53.50;;;;;;6242416;23;20457;-70
2022/03/07 01:53:26;;;;;;;7.73;6.17;;;3.10;54.10;;;;;;6241431;23;20784;-70
2022/03/07 01:56:12;;;;;;;8.47;6.30;;;3.10;54.40;;;;;;6242386;22;20410;-70
2022/03/07 01:58:57;;;;;;;12.87;6.70;;;3.20;54.30;;;;;;6239354;23;20421;-70
2022/03/07 02:01:44;;;;;;;9.05;6.25;;;3.20;53.70;;;;;;6242198;23;20423;-70
2022/03/07 02:04:30;;;;;;;7.82;5.68;;;3.20;53.70;;;;;;6241435;23;20686;-70
2022/03/07 02:07:16;;;;;;;7.65;5.82;;;3.20;53.50;;;;;;6237648;22;20864;-70
2022/03/07 02:10:01;;;;;;;9.10;6.15;;;3.20;53.50;;;;;;6241205;23;20175;-70
2022/03/07 02:12:47;;;;;;;9.13;5.85;;;3.20;53.00;;;;;;6242509;23;20587;-70
2022/03/07 02:15:33;;;;;;;6.43;4.97;;;3.10;52.80;;;;;;6241334;23;20211;-70
2022/03/07 02:18:21;;;;;;;9.00;5.70;;;3.10;52.70;;;;;;6241561;23;20914;-70
2022/03/07 02:21:10;;;;;;;12.43;5.70;;;3.20;52.40;;;;;;6244345;23;20424;-70
2022/03/07 02:23:57;;;;;;;7.70;5.78;;;3.20;51.70;;;;;;6243693;23;20379;-70
2022/03/07 02:26:43;;;;;;;7.57;5.47;;;3.20;51.30;;;;;;6241605;22;20218;-70
2022/03/07 02:29:30;;;;;;;10.10;5.77;;;3.10;51.60;;;;;;6244244;23;20397;-70
2022/03/07 02:32:16;;;;;;;6.73;5.53;;;3.10;51.70;;;;;;6243784;23;20864;-70
2022/03/07 02:35:01;;;;;;;7.50;4.77;;;3.10;51.60;;;;;;6243724;23;20462;-70
2022/03/07 02:37:47;;;;;;;6.72;5.40;;;3.00;52.50;;;;;;6240478;22;20395;-70
2022/03/07 02:40:34;;;;;;;4.87;4.37;;;3.00;52.40;;;;;;6243585;23;20590;-70
2022/03/07 02:43:20;;;;;;;6.97;5.23;;;3.00;52.00;;;;;;6244260;23;20378;-70
2022/03/07 02:46:05;;;;;;;9.70;5.47;;;2.90;52.10;;;;;;6243805;22;20393;-70
2022/03/07 02:48:51;;;;;;;7.53;5.30;;;2.90;52.60;;;;;;6243048;23;20278;-70
2022/03/07 02:51:37;;;;;;;8.18;5.25;;;2.80;52.10;;;;;;6244556;23;20353;-70
2022/03/07 02:54:23;;;;;;;7.72;5.95;;;2.70;52.70;;;;;;6243077;23;20170;-70
2022/03/07 02:57:10;;;;;;;7.38;5.55;;;2.70;53.00;;;;;;6241655;22;20288;-70
2022/03/07 02:59:55;;;;;;;7.18;5.38;;;2.70;53.10;;;;;;6243036;23;20172;-70
2022/03/07 03:02:41;;;;;;;8.10;5.25;;;2.60;53.50;;;;;;6243908;23;20262;-72
2022/03/07 03:05:27;;;;;;;11.70;5.70;;;2.70;53.40;;;;;;6244370;23;20218;-70
2022/03/07 03:08:12;;;;;;;8.38;5.32;;;2.70;53.30;;;;;;6241129;23;20216;-70
2022/03/07 03:10:58;;;;;;;8.63;6.25;;;2.80;52.70;;;;;;6243231;23;20231;-71
2022/03/07 03:13:45;;;;;;;6.63;4.95;;;2.80;52.20;;;;;;6243423;23;20248;-70
2022/03/07 03:16:31;;;;;;;5.70;5.07;;;2.80;51.40;;;;;;6241206;22;20207;-70
2022/03/07 03:19:17;;;;;;;7.15;5.65;;;2.80;51.80;;;;;;6243628;23;20180;-70
2022/03/07 03:22:03;;;;;;;6.93;4.93;;;2.70;51.70;;;;;;6243267;23;20258;-70
2022/03/07 03:24:49;;;;;;;11.43;5.63;;;2.80;51.50;;;;;;6241764;23;20378;-70
2022/03/07 03:27:35;;;;;;;7.57;5.30;;;2.70;51.90;;;;;;6239721;22;20428;-70
2022/03/07 03:30:22;;;;;;;7.60;5.45;;;2.70;51.70;;;;;;6243376;23;20398;-70
2022/03/07 03:33:08;;;;;;;8.05;5.50;;;2.70;51.20;;;;;;6242532;23;20822;-70
2022/03/07 03:35:54;;;;;;;8.60;5.83;;;2.80;50.60;;;;;;6241690;22;20788;-70
2022/03/07 03:38:39;;;;;;;7.72;5.65;;;2.80;50.10;;;;;;6242611;23;20378;-70
2022/03/07 03:41:25;;;;;;;8.68;6.05;;;2.80;50.30;;;;;;6243411;23;20283;-70
2022/03/07 03:44:11;;;;;;;8.82;6.63;;;2.70;49.70;;;;;;6242362;23;20670;-70
2022/03/07 03:46:57;;;;;;;8.60;6.18;;;2.70;49.80;;;;;;6240773;22;20205;-70
2022/03/07 03:49:43;;;;;;;9.63;6.60;;;2.60;50.30;;;;;;6242547;23;20618;-70
2022/03/07 03:52:29;;;;;;;7.38;6.15;;;2.50;50.00;;;;;;6243303;23;20622;-70
2022/03/07 03:55:16;;;;;;;9.13;7.10;;;2.50;50.20;;;;;;6242553;23;20215;-70
2022/03/07 03:58:01;;;;;;;9.90;6.53;;;2.50;49.70;;;;;;6241715;22;20697;-70
2022/03/07 04:00:47;;;;;;;11.85;8.60;;;2.40;49.40;;;;;;6243001;23;20378;-70
2022/03/07 04:03:34;;;;;;;11.57;7.38;;;2.40;49.40;;;;;;6242802;23;20167;-70
2022/03/07 04:06:20;;;;;;;8.65;7.13;;;2.40;49.40;;;;;;6240880;22;20203;-70
2022/03/07 04:09:16;;;;;;;9.63;7.30;;;2.40;49.40;;;;;;6242978;23;20171;-70
2022/03/07 04:12:01;;;;;;;10.50;7.47;;;2.40;49.40;;;;;;6242668;23;20374;-70
2022/03/07 04:14:47;;;;;;;11.43;8.80;;;2.40;48.80;;;;;;6242171;23;20239;-70
2022/03/07 04:17:32;;;;;;;12.77;8.75;;;2.50;48.50;;;;;;6241358;22;20414;-70
2022/03/07 04:20:20;;;;;;;11.82;9.05;;;2.40;47.70;;;;;;6243192;23;20186;-70
2022/03/07 04:23:06;;;;;;;12.40;8.63;;;2.40;47.50;;;;;;6242650;23;20266;-70
2022/03/07 04:25:51;;;;;;;11.47;8.60;;;2.40;47.60;;;;;;6241157;22;21279;-70
2022/03/07 04:28:37;;;;;;;13.00;8.50;;;2.40;47.10;;;;;;6243049;23;20378;-70
2022/03/07 04:31:22;;;;;;;12.10;8.27;;;2.40;47.30;;;;;;6243760;23;20372;-70
2022/03/07 04:34:09;;;;;;;10.30;7.93;;;2.40;47.80;;;;;;6241892;23;20782;-70
2022/03/07 04:36:56;;;;;;;15.02;8.48;;;2.40;47.30;;;;;;6239975;22;20409;-70
2022/03/07 04:39:42;;;;;;;15.80;8.10;;;2.30;49.00;;;;;;6243427;23;20655;-70
2022/03/07 04:42:28;;;;;;;12.02;8.85;;;2.30;47.90;;;;;;6243381;23;20487;-70
2022/03/07 04:45:14;;;;;;;12.97;8.40;;;2.30;47.80;;;;;;6241058;23;20174;-70
2022/03/07 04:48:00;;;;;;;16.10;9.07;;;2.30;47.60;;;;;;6242682;22;20415;-70
2022/03/07 04:50:45;;;;;;;13.07;8.70;;;2.30;47.20;;;;;;6242591;23;20260;-70
2022/03/07 04:53:32;;;;;;;12.55;9.80;;;2.40;46.40;;;;;;6241676;23;20289;-70
2022/03/07 04:56:18;;;;;;;10.63;7.90;;;2.40;46.20;;;;;;6240538;22;20265;-70
2022/03/07 04:59:05;;;;;;;13.70;10.80;;;2.30;46.60;;;;;;6242394;23;20550;-70
2022/03/07 05:01:50;;;;;;;12.90;10.25;;;2.40;46.40;;;;;;6241976;23;20192;-70
2022/03/07 05:04:36;;;;;;;11.63;8.95;;;2.40;45.60;;;;;;6241510;23;20215;-70
2022/03/07 05:07:21;;;;;;;11.60;9.83;;;2.40;45.30;;;;;;6240345;22;20201;-70
2022/03/07 05:10:09;;;;;;;14.43;9.95;;;2.30;45.70;;;;;;6242065;23;20377;-70
2022/03/07 05:12:55;;;;;;;14.20;9.73;;;2.20;46.20;;;;;;6241728;23;20171;-70
2022/03/07 05:15:41;;;;;;;13.30;9.90;;;2.20;45.40;;;;;;6241360;22;20858;-70
2022/03/07 05:18:26;;;;;;;11.63;8.70;;;2.30;45.90;;;;;;6243127;23;20170;-70
2022/03/07 05:21:12;;;;;;;14.73;9.65;;;2.30;46.00;;;;;;6242375;23;20214;-70
2022/03/07 05:23:58;;;;;;;14.30;9.82;;;2.20;46.10;;;;;;6241830;23;20301;-70
2022/03/07 05:26:45;;;;;;;13.32;10.23;;;2.20;45.10;;;;;;6239812;22;20212;-70
2022/03/07 05:29:31;;;;;;;16.40;10.38;;;2.20;45.20;;;;;;6242689;23;20503;-71
2022/03/07 05:32:17;;;;;;;17.42;8.70;;;2.10;44.80;;;;;;6242023;23;20167;-71
2022/03/07 05:35:03;;;;;;;13.10;9.07;;;2.20;44.90;;;;;;6240831;22;20333;-71
2022/03/07 05:37:49;;;;;;;11.20;9.15;;;2.10;44.80;;;;;;6241425;23;20169;-70
2022/03/07 05:40:35;;;;;;;13.30;9.40;;;2.10;44.80;;;;;;6243272;23;20559;-70
2022/03/07 05:43:22;;;;;;;13.90;9.80;;;2.20;45.20;;;;;;6242521;23;20269;-71
2022/03/07 05:46:08;;;;;;;15.00;9.77;;;2.10;45.30;;;;;;6210465;23;20176;-70
2022/03/07 05:48:53;;;;;;;13.05;10.05;;;2.20;45.30;;;;;;6211982;23;20169;-71
2022/03/07 05:51:41;;;;;;;13.98;9.80;;;2.10;45.10;;;;;;6214041;23;20212;-71
2022/03/07 05:54:26;;;;;;;13.18;9.18;;;2.10;44.70;;;;;;6213119;23;20946;-70
2022/03/07 05:57:12;;;;;;;13.80;10.60;;;2.00;45.40;;;;;;6215272;23;20167;-71
2022/03/07 05:59:59;;;;;;;20.25;10.80;;;2.10;45.00;;;;;;6213169;23;20214;-70
2022/03/07 06:02:45;;;;;;;14.35;9.23;;;2.10;45.10;;;;;;6213970;23;20195;-70
2022/03/07 06:05:32;;;;;;;14.43;9.63;;;2.10;44.60;;;;;;6211689;23;20206;-70
2022/03/07 06:08:18;;;;;;;14.32;10.15;;;2.10;44.40;;;;;;6213131;23;20171;-72
2022/03/07 06:11:03;;;;;;;12.93;9.55;;;2.00;44.50;;;;;;6213161;23;20221;-71
2022/03/07 06:13:49;;;;;;;10.55;8.40;;;2.00;44.50;;;;;;6214133;23;20524;-70
2022/03/07 06:16:36;;;;;;;14.95;10.50;;;1.90;44.50;;;;;;6213299;23;20253;-71
2022/03/07 06:19:21;;;;;;;14.82;9.63;;;1.90;44.60;;;;;;6214213;23;20503;-70
2022/03/07 06:22:07;;;;;;;12.27;9.23;;;1.90;44.50;;;;;;6213635;23;20190;-70
2022/03/07 06:24:53;;;;;;;13.50;9.60;;;1.90;43.90;;;;;;6211154;23;20236;-70
2022/03/07 06:27:38;;;;;;;11.10;8.10;;;1.80;44.50;;;;;;6214468;23;20167;-71
2022/03/07 06:30:24;;;;;;;12.43;9.10;;;1.90;44.40;;;;;;6213861;23;20245;-70
2022/03/07 06:33:11;;;;;;;13.75;9.13;;;1.80;44.60;;;;;;6213632;23;20183;-70
2022/03/07 06:35:56;;;;;;;15.23;9.80;;;1.90;44.40;;;;;;6211454;23;20502;-71
2022/03/07 06:38:42;;;;;;;16.35;9.57;;;1.90;44.30;;;;;;6214783;23;20181;-70
2022/03/07 06:41:28;;;;;;;11.25;9.00;;;1.90;44.40;;;;;;6215071;23;20167;-70
2022/03/07 06:44:13;;;;;;;13.60;9.57;;;1.80;44.80;;;;;;6211728;23;20276;-70
2022/03/07 06:46:59;;;;;;;11.45;9.65;;;1.90;44.60;;;;;;6214322;23;20246;-71
2022/03/07 06:49:51;;;;;;;14.10;10.15;;;1.80;44.70;;;;;;6214839;23;20506;-71
2022/03/07 06:52:36;;;;;;;14.10;10.00;;;1.70;45.00;;;;;;6214865;23;20172;-70
2022/03/07 06:55:22;;;;;;;17.90;10.45;;;1.80;45.40;;;;;;6210564;23;20208;-71
2022/03/07 06:58:08;;;;;;;12.45;9.13;;;1.90;44.90;;;;;;6213919;23;20496;-71
2022/03/07 07:00:53;;;;;;;13.50;8.93;;;2.00;45.20;;;;;;6214692;23;20171;-71
2022/03/07 07:03:39;;;;;;;14.87;10.27;;;1.90;45.70;;;;;;6212194;23;20804;-71
2022/03/07 07:06:26;;;;;;;15.47;9.60;;;1.90;45.30;;;;;;6212120;23;20691;-70
2022/03/07 07:09:12;;;;;;;16.20;9.87;;;2.00;45.90;;;;;;6214033;23;20519;-71
2022/03/07 07:11:57;;;;;;;11.03;9.30;;;2.10;45.10;;;;;;6212904;23;20732;-70
2022/03/07 07:14:43;;;;;;;16.88;9.73;;;2.10;45.00;;;;;;6212042;23;20918;-71
2022/03/07 07:17:29;;;;;;;15.43;10.35;;;2.20;45.30;;;;;;6214532;23;20584;-70
2022/03/07 07:20:15;;;;;;;17.40;10.40;;;2.10;45.50;;;;;;6213516;23;20505;-71
2022/03/07 07:23:02;;;;;;;13.95;9.75;;;2.10;45.40;;;;;;6212907;23;20191;-71
2022/03/07 07:25:48;;;;;;;13.93;10.45;;;2.20;45.40;;;;;;6212358;23;20245;-70
2022/03/07 07:28:34;;;;;;;13.15;10.13;;;2.30;44.70;;;;;;6213248;23;20167;-71
2022/03/07 07:31:20;;;;;;;13.75;10.52;;;2.40;44.10;;;;;;6214084;23;20294;-71
2022/03/07 07:34:06;;;;;;;15.82;10.80;;;2.50;44.40;;;;;;6210384;23;20211;-70
2022/03/07 07:36:51;;;;;;;16.83;10.10;;;2.40;44.70;;;;;;6213356;23;20968;-70
2022/03/07 07:39:38;;;;;;;14.83;10.13;;;2.50;44.20;;;;;;6214291;23;20623;-71
2022/03/07 07:42:24;;;;;;;14.23;10.55;;;2.50;44.20;;;;;;6213260;23;20434;-70
2022/03/07 07:45:12;;;;;;;14.83;9.97;;;2.60;44.40;;;;;;6209407;23;20331;-71
2022/03/07 07:47:59;;;;;;;14.98;10.07;;;2.70;44.40;;;;;;6212854;23;20406;-71
2022/03/07 07:50:44;;;;;;;12.98;9.63;;;2.70;43.80;;;;;;6212989;23;20170;-71
2022/03/07 07:53:30;;;;;;;15.77;9.50;;;2.70;43.40;;;;;;6210050;23;20172;-70
2022/03/07 07:56:17;;;;;;;12.50;9.23;;;2.80;43.30;;;;;;6212505;23;20190;-71
2022/03/07 07:59:03;;;;;;;12.82;10.05;;;2.80;43.30;;;;;;6212688;23;20380;-71
2022/03/07 08:01:48;;;;;;;14.50;10.82;;;2.70;42.70;;;;;;6213252;23;20172;-70
2022/03/07 08:04:34;;;;;;;13.10;8.98;;;2.80;42.30;;;;;;6211040;23;20194;-70
2022/03/07 08:07:19;;;;;;;11.48;9.63;;;2.80;42.10;;;;;;6210348;23;20172;-70
2022/03/07 08:10:05;;;;;;;16.10;10.10;;;2.80;41.80;;;;;;6212033;23;20176;-70
2022/03/07 08:12:52;;;;;;;16.95;10.18;;;2.80;41.70;;;;;;6212242;23;20715;-69
2022/03/07 08:15:40;;;;;;;11.43;9.73;;;2.90;41.60;;;;;;6211703;23;20254;-71
2022/03/07 08:18:26;;;;;;;11.38;9.75;;;2.90;41.20;;;;;;6212693;23;20468;-70
2022/03/07 08:21:11;;;;;;;11.40;9.87;;;3.00;40.80;;;;;;6213942;23;20170;-70
2022/03/07 08:24:00;;;;;;;13.48;10.43;;;2.90;41.50;;;;;;6213167;23;20529;-70
2022/03/07 08:26:46;;;;;;;15.70;10.63;;;3.10;40.80;;;;;;6211222;23;20251;-70
2022/03/07 08:29:33;;;;;;;13.80;11.10;;;3.20;39.50;;;;;;6213846;23;20381;-70
2022/03/07 08:32:18;;;;;;;14.82;10.63;;;3.30;39.60;;;;;;6212900;23;20226;-70
2022/03/07 08:35:06;;;;;;;13.27;9.53;;;3.10;38.70;;;;;;6212190;23;20211;-70
2022/03/07 08:37:52;;;;;;;13.90;10.50;;;3.20;38.70;;;;;;6212301;23;20394;-70
2022/03/07 08:40:38;;;;;;;13.07;10.38;;;3.30;37.20;;;;;;6212097;23;20172;-70
2022/03/07 08:43:24;;;;;;;12.68;10.25;;;3.30;37.10;;;;;;6211882;23;20188;-70
2022/03/07 08:46:11;;;;;;;15.88;10.00;;;3.50;37.40;;;;;;6210051;23;20211;-69
2022/03/07 08:48:57;;;;;;;15.13;9.67;;;3.50;37.30;;;;;;6211523;23;20669;-70
2022/03/07 08:51:44;;;;;;;13.50;10.23;;;3.60;36.70;;;;;;6211023;23;20394;-70
2022/03/07 08:54:30;;;;;;;11.20;8.90;;;3.70;35.70;;;;;;6212198;23;20407;-69
2022/03/07 08:57:16;;;;;;;12.70;9.10;;;3.70;35.70;;;;;;6209565;23;20415;-70
2022/03/07 09:00:02;;;;;;;12.40;9.57;;;3.70;35.20;;;;;;6211515;23;20439;-71
2022/03/07 09:02:49;;;;;;;10.37;9.00;;;3.70;35.00;;;;;;6212578;23;20424;-71
2022/03/07 09:05:35;;;;;;;13.43;10.20;;;3.70;35.60;;;;;;6210428;23;20415;-71
2022/03/07 09:08:21;;;;;;;14.20;10.52;;;3.80;35.60;;;;;;6210894;23;20518;-71
2022/03/07 09:11:06;;;;;;;14.27;10.00;;;3.80;34.50;;;;;;6213026;23;20173;-69
2022/03/07 09:13:53;;;;;;;11.60;8.30;;;3.80;35.20;;;;;;6211724;23;20924;-69
2022/03/07 09:16:39;;;;;;;11.77;9.57;;;3.90;36.20;;;;;;6210246;23;20380;-70
2022/03/07 09:19:26;;;;;;;15.07;9.32;;;3.90;34.90;;;;;;6212277;23;20400;-70
2022/03/07 09:22:11;;;;;;;14.03;9.00;;;4.00;35.20;;;;;;6212205;23;20168;-71
2022/03/07 09:24:57;;;;;;;11.27;9.17;;;4.20;36.60;;;;;;6209701;23;20407;-71
2022/03/07 09:27:44;;;;;;;14.33;10.50;;;4.40;35.00;;;;;;6211493;23;20370;-70
2022/03/07 09:30:29;;;;;;;10.70;8.73;;;4.50;35.40;;;;;;6211798;23;20378;-70
2022/03/07 09:33:15;;;;;;;14.10;9.10;;;4.60;35.30;;;;;;6211889;23;20367;-71
2022/03/07 09:36:03;;;;;;;11.10;9.00;;;4.70;34.00;;;;;;6210941;23;20383;-71
2022/03/07 09:38:50;;;;;;;11.77;8.97;;;4.90;33.50;;;;;;6213088;23;20823;-70
2022/03/07 09:41:36;;;;;;;12.87;9.60;;;5.00;32.00;;;;;;6212991;23;20460;-70
2022/03/07 09:44:21;;;;;;;11.30;8.50;;;4.90;33.30;;;;;;6212932;23;20775;-70
2022/03/07 09:47:07;;;;;;;11.83;9.50;;;4.90;31.90;;;;;;6210848;23;20380;-72
2022/03/07 09:49:53;;;;;;;10.47;8.00;;;4.90;32.10;;;;;;6212919;23;20458;-69
2022/03/07 09:52:43;;;;;;;11.87;8.67;;;5.00;31.50;;;;;;6211942;23;20392;-69
2022/03/07 09:55:29;;;;;;;14.63;8.13;;;5.10;32.40;;;;;;6209688;23;20859;-69
2022/03/07 09:58:15;;;;;;;11.70;8.23;;;5.30;32.40;;;;;;6207132;23;20355;-69
2022/03/07 10:01:08;;;;;;;12.50;7.70;;;5.50;30.40;;;;;;6213241;23;20409;-69
2022/03/07 10:04:05;;;;;;;10.77;7.87;;;5.60;31.70;;;;;;6212038;23;20447;-68
2022/03/07 10:06:51;;;;;;;12.60;7.20;;;5.60;31.70;;;;;;6209145;23;20745;-69
2022/03/07 10:09:39;;;;;;;9.47;6.77;;;5.60;30.30;;;;;;6211370;23;20377;-69
2022/03/07 10:12:28;;;;;;;10.20;7.13;;;5.60;30.40;;;;;;6211053;23;20384;-69
2022/03/07 10:15:16;;;;;;;8.10;6.60;;;5.60;30.80;;;;;;6208099;23;20898;-68
2022/03/07 10:18:02;;;;;;;8.47;6.37;;;5.70;30.20;;;;;;6210999;23;20383;-69
2022/03/07 10:20:51;;;;;;;8.87;6.63;;;5.80;29.90;;;;;;6212188;23;20450;-69
2022/03/07 10:23:37;;;;;;;9.20;7.53;;;5.90;29.70;;;;;;6210857;23;20427;-68
2022/03/07 10:26:24;;;;;;;9.00;6.60;;;6.00;29.30;;;;;;6208714;23;20431;-69
2022/03/07 10:29:11;;;;;;;11.70;7.10;;;6.00;29.90;;;;;;6211584;23;20428;-69
2022/03/07 10:31:56;;;;;;;9.87;7.70;;;6.10;30.20;;;;;;6210419;23;20383;-69
2022/03/07 10:34:42;;;;;;;7.60;6.60;;;6.20;29.60;;;;;;6209030;23;20927;-68
2022/03/07 10:37:35;;;;;;;9.50;6.90;;;6.20;29.20;;;;;;6211694;23;20863;-69
2022/03/07 10:40:23;;;;;;;9.07;6.13;;;6.20;29.90;;;;;;6213526;23;20860;-70
2022/03/07 10:43:12;;;;;;;7.80;6.60;;;6.70;33.70;;;;;;6213420;23;20188;-70
2022/03/07 10:46:00;;;;;;;9.10;7.40;;;6.80;29.80;;;;;;6212123;23;20377;-70
2022/03/07 10:48:45;;;;;;;7.73;6.93;;;6.90;28.70;;;;;;6213049;23;20382;-70
2022/03/07 10:51:32;;;;;;;10.30;7.10;;;7.10;29.30;;;;;;6213024;23;20392;-71
2022/03/07 10:54:20;;;;;;;11.47;6.60;;;7.30;28.60;;;;;;6211759;23;20479;-70
2022/03/07 10:57:08;;;;;;;8.27;6.40;;;7.40;29.30;;;;;;6212844;23;20387;-71
2022/03/07 11:00:03;;;;;;;6.93;6.23;;;7.50;28.20;;;;;;6212729;23;20448;-69
2022/03/07 11:02:50;;;;;;;7.63;6.50;;;7.60;28.30;;;;;;6212341;23;20870;-70
2022/03/07 11:05:36;;;;;;;6.73;5.60;;;7.80;28.40;;;;;;6210387;23;20500;-71
2022/03/07 11:08:22;;;;;;;9.40;6.00;;;7.70;28.30;;;;;;6211810;23;20708;-70
2022/03/07 11:11:07;;;;;;;8.63;6.37;;;7.80;28.40;;;;;;6213098;23;20373;-70
2022/03/07 11:13:55;;;;;;;7.23;5.97;;;7.90;27.90;;;;;;6209073;23;20708;-69
2022/03/07 11:16:44;;;;;;;8.43;6.43;;;7.70;27.20;;;;;;6211178;23;20443;-69
2022/03/07 11:19:31;;;;;;;8.17;6.20;;;7.90;28.50;;;;;;6212537;23;20704;-69
2022/03/07 11:22:17;;;;;;;9.80;6.00;;;8.10;28.70;;;;;;6212868;23;20375;-71
2022/03/07 11:25:05;;;;;;;6.87;6.17;;;8.10;27.50;;;;;;6209913;23;20419;-70
2022/03/07 11:27:51;;;;;;;8.23;6.83;;;8.10;27.70;;;;;;6212254;23;20395;-70
2022/03/07 11:30:42;;;;;;;9.50;5.93;;;8.20;27.90;;;;;;6212476;23;20397;-70
2022/03/07 11:33:33;;;;;;;6.57;5.87;;;8.10;27.00;;;;;;6212096;23;20373;-70
2022/03/07 11:36:22;;;;;;;10.07;7.33;;;8.20;27.40;;;;;;6235882;22;20463;-86
2022/03/07 11:39:07;;;;;;;8.57;6.33;;;8.30;26.60;;;;;;6243572;22;20769;-87
2022/03/07 11:41:53;;;;;;;7.30;6.60;;;8.40;27.50;;;;;;6243244;23;20380;-87
2022/03/07 11:44:40;;;;;;;7.33;6.10;;;8.30;26.90;;;;;;6241457;23;20431;-87
2022/03/07 11:47:35;;;;;;;9.27;6.67;;;8.20;27.30;;;;;;6243304;23;20511;-87
2022/03/07 11:50:23;;;;;;;7.90;6.20;;;8.10;26.70;;;;;;6243406;23;20392;-87
2022/03/07 11:53:08;;;;;;;8.70;6.77;;;8.10;27.40;;;;;;6242878;23;20895;-89
2022/03/07 11:55:54;;;;;;;7.70;5.97;;;8.00;27.10;;;;;;6242825;23;20854;-89
2022/03/07 11:58:48;;;;;;;7.97;7.17;;;7.80;28.00;;;;;;6242825;22;20394;-88
2022/03/07 12:01:34;;;;;;;14.00;6.13;;;7.90;27.50;;;;;;6242745;23;20387;-89
2022/03/07 12:04:20;;;;;;;8.00;7.20;;;8.00;28.60;;;;;;6240305;23;20939;-89
2022/03/07 12:07:07;;;;;;;7.43;6.30;;;8.10;27.70;;;;;;6241800;23;20446;-88
2022/03/07 12:09:53;;;;;;;11.53;6.70;;;8.30;27.60;;;;;;6243570;22;20754;-90
2022/03/07 12:12:39;;;;;;;11.20;6.83;;;8.50;27.80;;;;;;6243460;23;20399;-89
2022/03/07 12:15:25;;;;;;;6.47;5.70;;;8.70;28.20;;;;;;6241193;23;20511;-89
2022/03/07 12:18:11;;;;;;;12.83;6.60;;;8.90;26.80;;;;;;6243398;22;20494;-89
2022/03/07 12:20:59;;;;;;;6.93;6.23;;;8.90;26.90;;;;;;6242982;23;20523;-89
2022/03/07 12:23:46;;;;;;;8.63;6.47;;;8.90;27.00;;;;;;6241157;23;20475;-89
2022/03/07 12:26:32;;;;;;;7.50;6.67;;;8.80;27.10;;;;;;6242665;23;20379;-89
2022/03/07 12:29:19;;;;;;;7.50;6.50;;;8.80;27.50;;;;;;6242124;22;20485;-89
2022/03/07 12:32:06;;;;;;;9.63;6.37;;;8.90;26.60;;;;;;6242572;23;20381;-89
2022/03/07 12:34:52;;;;;;;9.10;6.47;;;8.80;26.80;;;;;;6240686;23;20948;-88
2022/03/07 12:37:39;;;;;;;10.07;7.63;;;8.90;27.00;;;;;;6243052;23;20396;-89
2022/03/07 12:40:26;;;;;;;8.50;6.87;;;8.90;27.00;;;;;;6242789;23;20354;-88
2022/03/07 12:43:11;;;;;;;9.20;6.60;;;8.80;27.10;;;;;;6240346;23;20418;-89
2022/03/07 12:45:57;;;;;;;10.43;7.40;;;9.00;27.00;;;;;;6242443;23;20720;-88
2022/03/07 12:48:45;;;;;;;7.50;6.27;;;8.80;26.20;;;;;;6242462;22;20415;-89
2022/03/07 12:51:32;;;;;;;7.67;6.80;;;8.80;26.80;;;;;;6243080;23;20422;-89
2022/03/07 12:54:28;;;;;;;6.63;5.87;;;8.90;26.80;;;;;;6240019;23;20742;-89
2022/03/07 12:57:19;;;;;;;10.70;6.53;;;9.10;27.50;;;;;;6242935;23;20992;-87
2022/03/07 13:00:08;;;;;;;13.17;7.53;;;9.30;26.90;;;;;;6242313;22;20447;-86
2022/03/07 13:02:55;;;;;;;8.57;6.97;;;9.60;25.70;;;;;;6240561;23;20376;-86
2022/03/07 13:05:41;;;;;;;8.43;7.50;;;9.60;25.30;;;;;;6242120;23;20488;-86
2022/03/07 13:08:27;;;;;;;9.20;7.80;;;9.40;26.00;;;;;;6240868;22;20407;-86
2022/03/07 13:11:13;;;;;;;7.90;7.03;;;9.40;26.90;;;;;;6241962;23;20501;-86
2022/03/07 13:14:00;;;;;;;7.90;6.90;;;9.50;26.40;;;;;;6240727;23;20376;-86
2022/03/07 13:16:46;;;;;;;12.70;7.27;;;9.50;26.50;;;;;;6242336;23;20442;-87
2022/03/07 13:19:32;;;;;;;8.63;7.73;;;9.20;26.30;;;;;;6242075;22;20422;-87
2022/03/07 13:22:18;;;;;;;12.23;7.87;;;9.10;25.90;;;;;;6240611;23;20383;-87
2022/03/07 13:25:05;;;;;;;10.10;7.50;;;9.00;26.10;;;;;;6242708;23;20729;-88
2022/03/07 13:27:51;;;;;;;9.00;7.00;;;9.10;27.30;;;;;;6243292;22;20355;-87
2022/03/07 13:30:39;;;;;;;8.07;7.30;;;9.10;26.40;;;;;;6243678;23;20347;-87
2022/03/07 13:33:34;;;;;;;10.50;6.93;;;9.30;26.90;;;;;;6241751;23;20379;-87
2022/03/07 13:36:19;;;;;;;10.77;8.03;;;9.40;26.00;;;;;;6239366;23;20410;-86
2022/03/07 13:39:05;;;;;;;10.13;7.40;;;9.60;26.90;;;;;;6239957;22;20531;-87
2022/03/07 13:41:52;;;;;;;10.13;7.13;;;9.60;25.80;;;;;;6241125;23;20928;-87
2022/03/07 13:44:52;;;;;;;8.63;7.73;;;9.60;26.40;;;;;;6241451;23;20461;-86
2022/03/07 13:47:40;;;;;;;12.83;7.63;;;9.50;26.30;;;;;;6240744;23;20463;-90
2022/03/07 13:50:27;;;;;;;11.63;8.80;;;9.70;26.10;;;;;;6241941;23;20358;-88
2022/03/07 13:53:16;;;;;;;8.40;7.43;;;9.50;25.90;;;;;;6239441;23;20359;-87
2022/03/07 13:56:02;;;;;;;11.53;8.50;;;9.10;26.60;;;;;;6240135;23;20358;-86
2022/03/07 13:58:47;;;;;;;46.90;10.13;;;9.00;26.90;;;;;;6238118;22;20394;-87
2022/03/07 14:01:33;;;;;;;17.03;8.57;;;9.10;26.90;;;;;;6237756;23;20441;-90
2022/03/07 14:04:21;;;;;;;12.17;7.83;;;9.20;26.70;;;;;;6238509;23;20413;-89
2022/03/07 14:07:07;;;;;;;10.27;7.50;;;9.30;27.40;;;;;;6238474;23;20431;-89
2022/03/07 14:09:55;;;;;;;8.30;7.37;;;9.30;26.60;;;;;;6238932;22;20469;-73
2022/03/07 14:12:44;;;;;;;10.63;7.70;;;9.40;26.60;;;;;;6237974;23;20354;-72
2022/03/07 14:15:31;;;;;;;8.60;7.63;;;9.40;26.90;;;;;;6240810;22;20419;-73
2022/03/07 14:18:17;;;;;;;9.07;7.83;;;9.60;26.50;;;;;;6241595;23;20354;-73
2022/03/07 14:21:04;;;;;;;8.40;7.50;;;9.60;26.10;;;;;;6240878;23;20382;-72
2022/03/07 14:23:50;;;;;;;8.07;7.27;;;9.80;26.20;;;;;;6240100;23;20370;-73
2022/03/07 14:26:36;;;;;;;14.93;7.90;;;9.80;26.50;;;;;;6242238;22;20517;-72
2022/03/07 14:29:22;;;;;;;12.20;8.47;;;9.70;26.00;;;;;;6239596;23;20436;-71